Terminal Aerodrome Forecast
Issued by NWS

Home | Current Version | Previous Version | Text Only | Print | Product List | Glossary On
Versions: 1 2 3 4 5 6 7 8 9 10 11 12 13 14 15 16 17 18 19 20 21 22 23 24
000
FTAK31 PAFA 011724
TAFAGA
TAF
PAGA 011724Z 0118/0218 18010KT P6SM -RA OVC025
     FM012100 22010KT 5SM -RA BR OVC025
     FM020000 21015G25KT 5SM -RA BR BKN015 OVC025
     FM020600 31005KT P6SM BKN025 OVC035=

USA.gov is the U.S. government's official web portal to all federal, state and local government web resources and services.